Carlton, Minnesota
Current Conditions -  °F | °C
As of 4:56 AM on Friday 21 Nov 2014 (Local Time) from KCOQ Reporting Station
Clear Clear  
Wind Chill:   Ceiling: Unl
Heat Index:   Visibility: 10mi
Dew Point: -6°   Wind: 3mph
Humidity: 78%   Direction: 170°S
Pressure: 30.13"   Gusts: NA
Location:  46.66°N, 92.42°W
Report Text: KCOQ 211056Z AUTO 17003KT 10SM CLR M18/M21 A3013 RMK AO2
Loading
Personal Weather Stations






























Interactive Weather Map New forecast layout! Learn more

10-Day Weather Forecast

Advertisements
Track Severe Weather on mobile